Time;durP1;ratioP1;P1;durP2;ratioP2;P2;SDS_P1;SDS_P2;PMS_P1;PMS_P2;Temp;Humidity;BMP_temperature;BMP_pressure;BME280_temperature;BME280_humidity;BME280_pressure;Samples;Min_cycle;Max_cycle;Signal;HPM_P1;HPM_P2
2021/08/28 00:01:07;;;;;;;20.55;14.90;;;14.90;99.90;;;;;;5079168;28;20487;-67
2021/08/28 00:03:33;;;;;;;17.20;13.43;;;14.80;99.90;;;;;;5093604;28;20107;-67
2021/08/28 00:05:59;;;;;;;22.50;15.27;;;14.90;99.90;;;;;;5075324;28;20361;-68
2021/08/28 00:08:25;;;;;;;21.98;15.23;;;14.90;99.90;;;;;;5093521;28;20039;-68
2021/08/28 00:10:51;;;;;;;22.80;15.43;;;14.90;99.90;;;;;;5093506;28;20115;-69
2021/08/28 00:13:17;;;;;;;16.58;13.82;;;14.80;99.90;;;;;;5093454;28;20446;-66
2021/08/28 00:15:43;;;;;;;28.67;14.95;;;14.80;99.90;;;;;;5093412;28;20032;-67
2021/08/28 00:18:09;;;;;;;15.40;13.63;;;14.80;99.90;;;;;;5093386;28;20020;-69
2021/08/28 00:20:36;;;;;;;23.50;14.48;;;14.80;99.90;;;;;;5075240;28;20028;-66
2021/08/28 00:23:07;;;;;;;20.65;14.27;;;14.80;99.90;;;;;;5093632;28;20091;-66
2021/08/28 00:25:33;;;;;;;20.63;13.45;;;14.80;99.90;;;;;;5074180;28;20126;-66
2021/08/28 00:27:59;;;;;;;23.50;14.73;;;14.80;99.90;;;;;;5093277;28;20082;-67
2021/08/28 00:30:25;;;;;;;25.13;15.50;;;14.70;99.90;;;;;;5075138;28;20032;-69
2021/08/28 00:32:51;;;;;;;22.50;13.75;;;14.70;99.90;;;;;;5093496;28;20102;-69
2021/08/28 00:35:17;;;;;;;18.60;13.65;;;14.70;99.90;;;;;;5093183;28;20392;-68
2021/08/28 00:37:43;;;;;;;18.58;14.05;;;14.70;99.90;;;;;;5075003;28;20024;-68
2021/08/28 00:40:09;;;;;;;16.83;12.90;;;14.70;99.90;;;;;;5093136;28;20024;-68
2021/08/28 00:42:51;;;;;;;16.13;12.13;;;14.70;99.90;;;;;;5093014;28;20035;-68
2021/08/28 00:45:20;;;;;;;20.90;13.63;;;14.70;99.90;;;;;;5093064;28;20044;-69
2021/08/28 00:47:54;;;;;;;18.65;12.55;;;14.70;99.90;;;;;;5093081;28;20050;-70
2021/08/28 00:50:22;;;;;;;19.60;13.52;;;14.80;99.90;;;;;;5093115;28;20561;-67
2021/08/28 00:52:48;;;;;;;23.83;14.30;;;14.80;99.90;;;;;;5074840;28;20428;-68
2021/08/28 00:55:14;;;;;;;21.98;14.80;;;14.80;99.90;;;;;;5093004;28;20056;-68
2021/08/28 00:57:40;;;;;;;19.85;14.25;;;14.80;99.90;;;;;;5092965;28;20067;-68
2021/08/28 01:00:07;;;;;;;21.08;14.82;;;14.80;99.90;;;;;;5092949;28;20099;-67
2021/08/28 01:02:38;;;;;;;19.65;13.73;;;14.80;99.90;;;;;;5074762;28;20051;-72
2021/08/28 01:05:30;;;;;;;23.13;15.38;;;14.90;99.90;;;;;;5092910;28;20040;-71
2021/08/28 01:08:15;;;;;;;24.40;15.45;;;14.80;99.90;;;;;;5091826;28;20554;-68
2021/08/28 01:10:50;;;;;;;25.67;15.63;;;14.80;99.90;;;;;;5092925;28;20028;-72
2021/08/28 01:13:17;;;;;;;23.23;13.68;;;14.70;99.90;;;;;;5092904;28;20024;-72
2021/08/28 01:15:47;;;;;;;19.65;12.75;;;14.80;99.90;;;;;;5092829;28;20111;-68
2021/08/28 01:18:17;;;;;;;18.63;12.93;;;14.70;99.90;;;;;;5092858;28;20024;-67
2021/08/28 01:21:02;;;;;;;24.80;13.75;;;14.60;99.90;;;;;;5092801;28;20052;-68
2021/08/28 01:23:34;;;;;;;27.50;13.95;;;14.50;99.90;;;;;;5092817;28;20073;-72
2021/08/28 01:26:08;;;;;;;19.50;12.55;;;14.60;99.90;;;;;;5092654;28;20040;-69
2021/08/28 01:28:42;;;;;;;20.60;13.98;;;14.60;99.90;;;;;;5092759;28;20077;-70
2021/08/28 01:31:10;;;;;;;20.60;14.02;;;14.60;99.90;;;;;;5092727;28;20032;-68
2021/08/28 01:33:37;;;;;;;24.38;13.65;;;14.60;99.90;;;;;;5092915;28;20027;-68
2021/08/28 01:36:04;;;;;;;31.48;14.63;;;14.60;99.90;;;;;;5074347;28;20460;-67
2021/08/28 01:38:38;;;;;;;20.23;14.63;;;14.60;99.90;;;;;;5096318;28;20032;-68
2021/08/28 01:41:04;;;;;;;18.17;13.73;;;14.60;99.90;;;;;;5096330;28;20020;-68
2021/08/28 01:43:30;;;;;;;20.52;14.15;;;14.60;99.90;;;;;;5078051;28;20024;-67
2021/08/28 01:45:57;;;;;;;23.23;15.02;;;14.60;99.90;;;;;;5096146;28;20036;-68
2021/08/28 01:48:23;;;;;;;20.95;13.90;;;14.60;99.90;;;;;;5077919;28;20472;-67
2021/08/28 01:50:52;;;;;;;24.83;14.60;;;14.70;99.90;;;;;;5096467;28;20031;-69
2021/08/28 01:53:19;;;;;;;24.15;14.98;;;14.70;99.90;;;;;;5096069;28;20109;-70
2021/08/28 01:55:45;;;;;;;23.08;13.93;;;14.60;99.90;;;;;;5095985;28;20031;-67
2021/08/28 01:58:14;;;;;;;25.88;15.32;;;14.60;99.90;;;;;;5096218;28;20028;-67
2021/08/28 02:00:40;;;;;;;21.63;15.13;;;14.60;99.90;;;;;;5095809;28;20040;-69
2021/08/28 02:03:06;;;;;;;23.92;15.25;;;14.70;99.90;;;;;;5077765;28;20525;-66
2021/08/28 02:05:43;;;;;;;24.67;15.45;;;14.70;99.90;;;;;;5095483;28;20063;-68
2021/08/28 02:08:16;;;;;;;17.67;14.48;;;14.70;99.90;;;;;;5095861;28;20032;-66
2021/08/28 02:10:51;;;;;;;24.52;16.55;;;14.70;99.90;;;;;;5095830;28;20020;-68
2021/08/28 02:13:56;;;;;;;21.77;14.52;;;14.60;99.90;;;;;;5077475;28;20111;-68
2021/08/28 02:16:26;;;;;;;20.55;14.35;;;14.70;99.90;;;;;;5080823;28;20039;-67
2021/08/28 02:19:18;;;;;;;18.98;13.73;;;14.70;99.90;;;;;;5095618;28;20024;-67
2021/08/28 02:21:52;;;;;;;22.70;15.45;;;14.80;99.90;;;;;;5077416;28;20100;-68
2021/08/28 02:24:26;;;;;;;22.17;15.63;;;14.80;99.90;;;;;;5095512;28;20028;-67
2021/08/28 02:27:47;;;;;;;20.05;14.63;;;14.90;99.90;;;;;;5095408;28;20039;-68
2021/08/28 02:30:18;;;;;;;20.48;14.82;;;14.90;99.90;;;;;;5088528;28;20115;-67
2021/08/28 02:32:54;;;;;;;28.75;16.20;;;14.90;99.90;;;;;;5095386;28;20093;-66
2021/08/28 02:35:26;;;;;;;21.45;16.17;;;14.90;99.90;;;;;;5095311;28;20024;-69
2021/08/28 02:37:53;;;;;;;35.55;18.58;;;14.90;99.90;;;;;;5095272;28;20024;-68
2021/08/28 02:40:21;;;;;;;31.45;18.88;;;14.90;99.90;;;;;;5077283;28;20369;-65
2021/08/28 02:42:47;;;;;;;27.60;18.27;;;14.80;99.90;;;;;;5095107;28;20461;-67
2021/08/28 02:45:16;;;;;;;44.67;19.55;;;14.80;99.90;;;;;;5094965;28;20036;-67
2021/08/28 02:47:44;;;;;;;29.88;18.83;;;14.80;99.90;;;;;;5094555;28;20110;-67
2021/08/28 02:50:13;;;;;;;32.08;19.00;;;14.80;99.90;;;;;;5094496;28;20031;-67
2021/08/28 02:52:40;;;;;;;29.05;18.20;;;14.80;99.90;;;;;;5094654;28;20016;-67
2021/08/28 02:55:08;;;;;;;31.48;17.50;;;14.90;99.90;;;;;;5094558;28;20362;-67
2021/08/28 02:57:37;;;;;;;28.83;18.13;;;14.90;99.90;;;;;;5095115;28;20020;-68
2021/08/28 03:00:03;;;;;;;24.67;17.23;;;14.90;99.90;;;;;;5076524;28;20055;-67
2021/08/28 03:02:30;;;;;;;33.38;19.35;;;14.90;99.90;;;;;;5094774;28;20048;-67
2021/08/28 03:04:56;;;;;;;32.70;19.20;;;14.90;99.90;;;;;;5094873;28;20035;-68
2021/08/28 03:07:23;;;;;;;33.95;19.75;;;14.90;99.90;;;;;;5094924;28;20028;-68
2021/08/28 03:09:50;;;;;;;28.50;18.17;;;14.90;99.90;;;;;;5094595;28;20045;-65
2021/08/28 03:12:16;;;;;;;33.55;17.73;;;14.90;99.90;;;;;;5094601;28;20032;-67
2021/08/28 03:14:42;;;;;;;39.08;18.42;;;14.90;99.90;;;;;;5094493;28;20448;-67
2021/08/28 03:17:11;;;;;;;27.33;17.17;;;14.90;99.90;;;;;;5076226;28;20024;-67
2021/08/28 03:19:41;;;;;;;28.08;17.30;;;14.90;99.90;;;;;;5076118;28;20169;-68
2021/08/28 03:22:12;;;;;;;26.15;17.42;;;15.00;99.90;;;;;;5076183;28;20056;-66
2021/08/28 03:24:41;;;;;;;24.05;17.42;;;15.00;99.90;;;;;;5094296;28;20024;-66
2021/08/28 03:27:07;;;;;;;20.83;15.45;;;15.10;99.90;;;;;;5076018;28;20111;-69
2021/08/28 03:29:36;;;;;;;21.67;16.75;;;15.10;99.90;;;;;;5094237;28;20021;-68
2021/08/28 03:32:04;;;;;;;24.20;16.58;;;15.10;99.90;;;;;;5075950;28;20024;-69
2021/08/28 03:34:32;;;;;;;22.55;17.02;;;15.20;99.90;;;;;;5094150;28;20127;-68
2021/08/28 03:36:59;;;;;;;26.52;17.63;;;15.20;99.90;;;;;;5094061;28;20020;-70
2021/08/28 03:39:25;;;;;;;32.53;19.02;;;15.20;99.90;;;;;;5075753;28;20028;-69
2021/08/28 03:41:51;;;;;;;26.20;18.05;;;15.20;99.90;;;;;;5093707;28;20441;-69
2021/08/28 03:44:18;;;;;;;28.38;19.77;;;15.10;99.90;;;;;;5075656;28;20113;-68
2021/08/28 03:46:47;;;;;;;27.40;17.95;;;15.10;99.90;;;;;;5093850;28;20062;-67
2021/08/28 03:49:13;;;;;;;30.40;19.30;;;15.20;99.90;;;;;;5093811;28;20475;-68
2021/08/28 03:51:39;;;;;;;24.60;17.00;;;15.20;99.90;;;;;;5075682;28;20033;-68
2021/08/28 03:54:05;;;;;;;21.70;16.77;;;15.20;99.90;;;;;;5075153;28;20032;-69
2021/08/28 03:56:31;;;;;;;23.10;15.85;;;15.20;99.90;;;;;;5093396;28;20380;-68
2021/08/28 03:58:57;;;;;;;18.98;16.67;;;15.20;99.90;;;;;;5093624;28;20123;-69
2021/08/28 04:01:23;;;;;;;18.92;15.55;;;15.20;99.90;;;;;;5093229;28;20564;-67
2021/08/28 04:03:49;;;;;;;17.30;14.65;;;15.20;99.90;;;;;;5093653;28;20109;-69
2021/08/28 04:06:15;;;;;;;15.75;13.98;;;15.30;99.90;;;;;;5093489;28;20040;-68
2021/08/28 04:08:46;;;;;;;17.30;14.65;;;15.30;99.90;;;;;;5093789;28;20487;-69
2021/08/28 04:11:12;;;;;;;17.50;14.52;;;15.30;99.90;;;;;;5093526;28;20476;-70
2021/08/28 04:13:37;;;;;;;20.95;15.57;;;15.20;99.90;;;;;;5093637;28;20052;-67
2021/08/28 04:16:04;;;;;;;19.40;15.10;;;15.20;99.90;;;;;;5093429;28;20036;-68
2021/08/28 04:18:30;;;;;;;19.95;15.90;;;15.10;99.90;;;;;;5075208;28;20078;-65
2021/08/28 04:21:00;;;;;;;18.35;14.88;;;15.10;99.90;;;;;;5075288;28;20381;-65
2021/08/28 04:23:26;;;;;;;17.88;14.07;;;15.20;99.90;;;;;;5093301;28;20024;-65
2021/08/28 04:25:52;;;;;;;19.33;14.07;;;15.20;99.90;;;;;;5092920;28;20114;-65
2021/08/28 04:28:17;;;;;;;17.33;14.45;;;15.20;99.90;;;;;;5093530;28;20024;-67
2021/08/28 04:30:43;;;;;;;16.15;14.35;;;15.20;99.90;;;;;;5092944;28;20043;-65
2021/08/28 04:33:14;;;;;;;17.48;15.43;;;15.20;99.90;;;;;;5093206;28;20028;-67
2021/08/28 04:35:40;;;;;;;18.85;14.25;;;15.20;99.90;;;;;;5075105;28;20051;-66
2021/08/28 04:38:06;;;;;;;23.02;15.48;;;15.20;99.90;;;;;;5092858;28;20035;-64
2021/08/28 04:40:32;;;;;;;25.50;16.95;;;15.20;99.90;;;;;;5093152;28;20028;-65
2021/08/28 04:42:58;;;;;;;21.75;16.35;;;15.20;99.90;;;;;;5093206;28;20024;-68
2021/08/28 04:45:24;;;;;;;21.27;16.05;;;15.20;99.90;;;;;;5092974;28;20469;-66
2021/08/28 04:47:49;;;;;;;24.30;16.67;;;15.20;99.90;;;;;;5093350;28;20528;-68
2021/08/28 04:50:15;;;;;;;24.60;17.63;;;15.20;99.90;;;;;;5092995;28;20032;-66
2021/08/28 04:52:41;;;;;;;25.60;18.75;;;15.30;99.90;;;;;;5093129;28;20032;-68
2021/08/28 04:55:07;;;;;;;24.23;17.50;;;15.20;99.90;;;;;;5074903;28;20135;-68
2021/08/28 04:57:33;;;;;;;27.33;17.65;;;15.20;99.90;;;;;;5093056;28;20028;-69
2021/08/28 04:59:59;;;;;;;29.75;18.27;;;15.30;99.90;;;;;;5074777;28;20024;-69
2021/08/28 05:02:25;;;;;;;32.10;18.10;;;15.30;99.90;;;;;;5093062;28;20044;-67
2021/08/28 05:04:51;;;;;;;38.72;18.88;;;15.30;99.90;;;;;;5074656;28;20032;-69
2021/08/28 05:07:16;;;;;;;43.42;21.00;;;15.40;99.90;;;;;;5074700;28;20036;-68
2021/08/28 05:09:42;;;;;;;62.83;29.13;;;15.40;99.90;;;;;;5092833;28;20032;-66
2021/08/28 05:12:08;;;;;;;67.25;28.67;;;15.40;99.90;;;;;;5076409;28;20127;-67
2021/08/28 05:14:37;;;;;;;60.72;27.35;;;15.40;99.90;;;;;;5078901;28;20379;-67
2021/08/28 05:17:06;;;;;;;71.30;29.98;;;15.50;99.90;;;;;;5096420;28;20461;-65
2021/08/28 05:19:33;;;;;;;84.93;32.30;;;15.50;99.90;;;;;;5096436;28;20464;-68
2021/08/28 05:21:58;;;;;;;85.32;35.78;;;15.50;99.90;;;;;;5096714;28;20460;-66
2021/08/28 05:24:24;;;;;;;72.07;33.20;;;15.60;99.90;;;;;;5078393;28;20154;-67
2021/08/28 05:26:50;;;;;;;97.60;36.97;;;15.60;99.90;;;;;;5096506;28;20044;-67
2021/08/28 05:29:16;;;;;;;70.53;32.33;;;15.60;99.90;;;;;;5096528;28;20040;-70
2021/08/28 05:31:44;;;;;;;73.60;30.27;;;15.50;99.90;;;;;;5078287;28;20024;-70
2021/08/28 05:34:10;;;;;;;60.63;27.70;;;15.50;99.90;;;;;;5096542;28;20020;-68
2021/08/28 05:36:35;;;;;;;59.63;27.45;;;15.50;99.90;;;;;;5096398;28;20032;-69
2021/08/28 05:39:02;;;;;;;73.88;33.28;;;15.50;99.90;;;;;;5096329;28;20513;-70
2021/08/28 05:41:29;;;;;;;75.45;32.90;;;15.60;99.90;;;;;;5096362;28;20530;-69
2021/08/28 05:43:54;;;;;;;58.25;25.17;;;15.50;99.90;;;;;;5078048;28;20032;-68
2021/08/28 05:46:20;;;;;;;49.42;23.88;;;15.50;99.90;;;;;;5096182;28;20046;-67
2021/08/28 05:48:46;;;;;;;46.58;23.08;;;15.60;99.90;;;;;;5096213;28;20036;-67
2021/08/28 05:51:12;;;;;;;50.45;24.23;;;15.60;99.90;;;;;;5096106;28;20043;-67
2021/08/28 05:53:38;;;;;;;41.08;25.55;;;15.60;99.90;;;;;;5096368;28;20094;-66
2021/08/28 05:56:04;;;;;;;35.67;22.75;;;15.60;99.90;;;;;;5096003;28;20080;-67
2021/08/28 05:58:30;;;;;;;29.30;20.65;;;15.60;99.90;;;;;;5095981;28;20398;-69
2021/08/28 06:00:55;;;;;;;26.35;18.35;;;15.60;99.90;;;;;;5095609;28;20044;-69
2021/08/28 06:03:21;;;;;;;31.45;19.38;;;15.60;99.90;;;;;;5077721;28;20419;-67
2021/08/28 06:05:47;;;;;;;23.27;17.85;;;15.50;99.90;;;;;;5077517;28;20028;-69
2021/08/28 06:08:13;;;;;;;25.02;17.10;;;15.50;99.90;;;;;;5095833;28;20059;-68
2021/08/28 06:10:39;;;;;;;21.58;15.85;;;15.60;99.90;;;;;;5095764;28;20105;-67
2021/08/28 06:13:05;;;;;;;20.58;14.30;;;15.50;99.90;;;;;;5095470;28;20153;-67
2021/08/28 06:15:31;;;;;;;22.20;16.10;;;15.60;99.90;;;;;;5095696;28;20035;-68
2021/08/28 06:17:57;;;;;;;21.67;15.15;;;15.60;99.90;;;;;;5095923;28;20027;-67
2021/08/28 06:20:23;;;;;;;19.73;14.95;;;15.70;99.90;;;;;;5095247;28;20380;-68
2021/08/28 06:22:49;;;;;;;18.92;14.20;;;15.70;99.90;;;;;;5077677;28;20368;-68
2021/08/28 06:25:15;;;;;;;20.15;15.10;;;15.70;99.90;;;;;;5095406;28;20042;-69
2021/08/28 06:27:40;;;;;;;18.38;13.45;;;15.80;99.90;;;;;;5076943;28;20039;-71
2021/08/28 06:30:07;;;;;;;20.95;14.80;;;15.80;99.90;;;;;;5077172;28;20028;-68
2021/08/28 06:32:33;;;;;;;25.33;17.60;;;15.80;99.90;;;;;;5077183;28;20024;-68
2021/08/28 06:34:58;;;;;;;47.55;30.00;;;15.80;99.90;;;;;;5095369;28;20086;-70
2021/08/28 06:37:24;;;;;;;45.75;27.27;;;15.80;99.90;;;;;;5095182;28;20085;-69
2021/08/28 06:39:50;;;;;;;46.15;26.38;;;15.80;99.90;;;;;;5095154;28;20060;-68
2021/08/28 06:42:16;;;;;;;47.28;26.63;;;15.80;99.90;;;;;;5095188;28;20032;-69
2021/08/28 06:44:42;;;;;;;44.08;25.63;;;15.80;99.90;;;;;;5094728;28;20031;-69
2021/08/28 06:47:08;;;;;;;45.20;25.23;;;15.90;99.90;;;;;;5095016;28;20038;-70
2021/08/28 06:49:34;;;;;;;38.72;24.00;;;15.90;99.90;;;;;;5076664;28;20395;-70
2021/08/28 06:52:00;;;;;;;33.92;19.73;;;15.90;99.90;;;;;;5081945;28;20040;-69
2021/08/28 06:54:25;;;;;;;29.00;19.95;;;15.90;99.90;;;;;;5074707;28;20025;-68
2021/08/28 06:56:51;;;;;;;32.97;21.73;;;15.90;99.90;;;;;;5056597;28;20028;-67
2021/08/28 06:59:17;;;;;;;39.75;23.38;;;15.80;99.90;;;;;;5074593;28;20103;-71
2021/08/28 07:01:43;;;;;;;32.40;21.45;;;15.90;99.90;;;;;;5074178;28;20098;-72
2021/08/28 07:04:09;;;;;;;30.80;17.48;;;15.90;99.90;;;;;;5074428;28;20027;-72
2021/08/28 07:06:34;;;;;;;31.73;17.42;;;16.00;99.90;;;;;;5074401;28;20070;-73
2021/08/28 07:09:02;;;;;;;25.17;18.35;;;16.00;99.90;;;;;;5074438;28;20465;-70
2021/08/28 07:11:28;;;;;;;29.50;18.15;;;16.10;99.90;;;;;;5056365;28;20606;-71
2021/08/28 07:13:53;;;;;;;24.95;17.13;;;16.10;99.90;;;;;;5056407;28;20025;-71
2021/08/28 07:16:19;;;;;;;34.28;24.08;;;16.10;99.90;;;;;;5074227;28;20028;-71
2021/08/28 07:18:45;;;;;;;31.83;19.30;;;16.10;99.90;;;;;;5074183;28;20021;-71
2021/08/28 07:21:11;;;;;;;20.70;12.68;;;16.10;99.90;;;;;;5074105;28;20039;-71
2021/08/28 07:23:37;;;;;;;20.85;11.25;;;16.10;99.90;;;;;;5056225;28;20029;-69
2021/08/28 07:26:04;;;;;;;18.35;12.23;;;16.10;99.90;;;;;;5073909;28;20025;-70
2021/08/28 07:28:29;;;;;;;16.77;11.40;;;16.10;99.90;;;;;;5074044;28;20048;-72
2021/08/28 07:30:56;;;;;;;22.02;13.10;;;16.10;99.90;;;;;;5073862;28;20071;-72
2021/08/28 07:33:21;;;;;;;21.23;13.88;;;16.20;99.90;;;;;;5073903;28;20078;-71
2021/08/28 07:35:47;;;;;;;14.80;11.25;;;16.20;99.90;;;;;;5073444;28;20032;-70
2021/08/28 07:38:13;;;;;;;18.02;12.43;;;16.20;99.90;;;;;;5072522;28;20028;-72
2021/08/28 07:40:39;;;;;;;16.23;12.10;;;16.30;99.90;;;;;;5073541;28;20028;-69
2021/08/28 07:43:05;;;;;;;11.00;9.85;;;16.30;99.90;;;;;;5073737;28;20100;-68
2021/08/28 07:45:31;;;;;;;12.93;10.52;;;16.30;99.90;;;;;;5053877;28;20450;-70
2021/08/28 07:47:57;;;;;;;12.35;10.52;;;16.30;99.90;;;;;;5055376;28;20032;-72
2021/08/28 07:50:23;;;;;;;12.70;10.80;;;16.30;99.90;;;;;;5073798;28;20027;-70
2021/08/28 07:52:49;;;;;;;14.48;9.57;;;16.30;99.90;;;;;;5055626;28;20025;-70
2021/08/28 07:55:16;;;;;;;12.95;9.02;;;16.30;99.90;;;;;;5073193;28;20389;-70
2021/08/28 07:57:42;;;;;;;11.77;10.00;;;16.30;99.90;;;;;;5073447;28;20508;-71
2021/08/28 08:00:10;;;;;;;12.60;10.35;;;16.30;99.90;;;;;;5073705;28;20024;-69
2021/08/28 08:02:36;;;;;;;11.02;9.85;;;16.40;99.90;;;;;;5055241;28;20127;-68
2021/08/28 08:05:03;;;;;;;11.43;10.23;;;16.30;99.90;;;;;;5055268;28;20884;-70
2021/08/28 08:07:29;;;;;;;13.23;10.70;;;16.40;99.90;;;;;;5073331;28;20021;-70
2021/08/28 08:09:55;;;;;;;13.20;9.85;;;16.40;99.90;;;;;;5055239;28;20050;-72
2021/08/28 08:12:21;;;;;;;10.15;8.35;;;16.50;99.90;;;;;;5073509;28;20028;-72
2021/08/28 08:14:47;;;;;;;12.88;9.32;;;16.60;99.90;;;;;;5055287;28;20449;-70
2021/08/28 08:17:14;;;;;;;12.30;8.63;;;16.60;99.90;;;;;;5073208;28;20029;-71
2021/08/28 08:19:41;;;;;;;15.20;9.10;;;16.70;99.90;;;;;;5073168;28;20016;-72
2021/08/28 08:22:06;;;;;;;9.60;8.10;;;16.80;99.90;;;;;;5055093;28;20029;-71
2021/08/28 08:24:32;;;;;;;10.77;9.55;;;16.90;99.90;;;;;;5073134;28;20113;-72
2021/08/28 08:26:58;;;;;;;11.93;8.60;;;17.00;99.90;;;;;;5072575;28;20102;-71
2021/08/28 08:29:24;;;;;;;11.55;8.05;;;17.00;99.90;;;;;;5053549;28;20070;-73
2021/08/28 08:31:54;;;;;;;10.65;9.18;;;17.10;99.90;;;;;;5072830;28;20032;-72
2021/08/28 08:34:20;;;;;;;13.85;8.70;;;17.20;99.90;;;;;;5054936;28;20063;-72
2021/08/28 08:36:46;;;;;;;10.38;8.43;;;17.20;99.90;;;;;;5072894;28;20070;-70
2021/08/28 08:39:12;;;;;;;11.93;9.15;;;17.20;99.90;;;;;;5072967;28;20047;-72
2021/08/28 08:41:40;;;;;;;12.05;9.48;;;17.20;99.90;;;;;;5072969;28;20468;-70
2021/08/28 08:44:07;;;;;;;11.80;9.15;;;17.30;99.90;;;;;;5054805;28;20025;-70
2021/08/28 08:46:36;;;;;;;11.43;9.15;;;17.30;99.90;;;;;;5073508;28;20044;-70
2021/08/28 08:49:04;;;;;;;10.18;9.18;;;17.30;99.90;;;;;;5077058;28;20039;-68
2021/08/28 08:51:30;;;;;;;9.32;8.43;;;17.30;99.90;;;;;;5058985;28;20483;-69
2021/08/28 08:53:57;;;;;;;10.35;8.60;;;17.30;99.90;;;;;;5059031;28;20051;-70
2021/08/28 08:56:23;;;;;;;10.95;8.93;;;17.40;99.90;;;;;;5076885;28;20035;-71
2021/08/28 08:58:52;;;;;;;18.75;13.57;;;17.40;99.90;;;;;;5076870;28;20016;-68
2021/08/28 09:01:18;;;;;;;10.35;9.00;;;17.40;99.90;;;;;;5045939;28;20128;-72
2021/08/28 09:03:44;;;;;;;12.00;9.30;;;17.50;99.90;;;;;;5035541;28;20120;-73
2021/08/28 09:06:10;;;;;;;9.93;8.05;;;17.50;99.90;;;;;;5035410;28;20084;-72
2021/08/28 09:08:36;;;;;;;17.30;9.90;;;17.60;99.90;;;;;;5035161;28;20021;-73
2021/08/28 09:11:03;;;;;;;10.35;8.63;;;17.60;99.90;;;;;;5035337;28;20103;-70
2021/08/28 09:13:28;;;;;;;10.35;8.55;;;17.70;99.90;;;;;;5036730;28;20047;-74
2021/08/28 09:16:06;;;;;;;11.75;8.35;;;17.70;99.90;;;;;;5035291;28;20026;-71
2021/08/28 09:18:52;;;;;;;14.55;9.30;;;17.80;99.90;;;;;;5036635;28;20029;-71
2021/08/28 09:21:23;;;;;;;17.30;9.77;;;17.80;99.90;;;;;;5036523;28;20025;-70
2021/08/28 09:23:58;;;;;;;11.48;10.23;;;17.80;99.90;;;;;;5035181;28;20033;-74
2021/08/28 09:26:39;;;;;;;10.10;9.10;;;17.70;99.90;;;;;;5035029;28;20048;-74
2021/08/28 09:29:09;;;;;;;14.43;9.07;;;17.70;99.90;;;;;;5036447;28;20030;-69
2021/08/28 09:31:36;;;;;;;11.07;8.87;;;17.70;99.90;;;;;;5036435;28;20053;-71
2021/08/28 09:34:17;;;;;;;14.38;9.90;;;17.70;99.90;;;;;;5036315;28;20030;-69
2021/08/28 09:36:44;;;;;;;14.60;8.83;;;17.70;99.90;;;;;;5036318;28;20069;-70
2021/08/28 09:39:10;;;;;;;14.15;10.15;;;17.70;99.90;;;;;;5036162;28;20682;-71
2021/08/28 09:41:36;;;;;;;14.10;10.57;;;17.70;99.90;;;;;;5035851;28;20582;-71
2021/08/28 09:44:09;;;;;;;11.63;8.85;;;17.70;99.90;;;;;;5036117;28;20421;-68
2021/08/28 09:46:38;;;;;;;12.05;9.27;;;17.80;99.90;;;;;;5035987;28;20041;-73
2021/08/28 09:49:05;;;;;;;10.27;9.05;;;17.70;99.90;;;;;;5035932;28;20032;-72
2021/08/28 09:51:38;;;;;;;13.25;10.50;;;17.80;99.90;;;;;;5034581;28;20103;-69
2021/08/28 09:54:04;;;;;;;9.43;8.38;;;17.80;99.90;;;;;;5035987;28;20021;-69
2021/08/28 09:56:30;;;;;;;9.57;8.25;;;17.80;99.90;;;;;;5034581;28;20561;-68
2021/08/28 09:58:56;;;;;;;10.63;9.13;;;17.90;99.90;;;;;;5035045;28;20398;-69
2021/08/28 10:01:23;;;;;;;12.48;9.73;;;17.90;99.90;;;;;;5054634;28;20048;-70
2021/08/28 10:03:59;;;;;;;13.82;8.90;;;18.00;99.90;;;;;;5075506;28;20033;-72
2021/08/28 10:06:25;;;;;;;10.50;8.88;;;18.10;99.90;;;;;;5075239;28;20431;-71
2021/08/28 10:08:52;;;;;;;9.98;8.93;;;18.20;99.90;;;;;;5075257;28;20449;-72
2021/08/28 10:11:19;;;;;;;10.90;9.05;;;18.40;99.90;;;;;;5075528;28;20115;-73
2021/08/28 10:13:48;;;;;;;10.23;7.93;;;18.60;99.90;;;;;;5057658;28;20439;-75
2021/08/28 10:16:15;;;;;;;9.80;8.68;;;;;;;;;;5075780;28;20028;-70
2021/08/28 10:18:44;;;;;;;11.80;9.38;;;;;;;;;;5057371;28;20484;-73
2021/08/28 10:21:11;;;;;;;11.05;8.75;;;18.80;99.90;;;;;;5075385;28;20058;-73
2021/08/28 10:23:40;;;;;;;10.25;9.00;;;19.20;99.90;;;;;;5075348;28;20028;-74
2021/08/28 10:26:10;;;;;;;11.27;8.95;;;19.20;99.90;;;;;;5057200;28;20488;-71
2021/08/28 10:28:38;;;;;;;14.15;9.30;;;19.30;99.90;;;;;;5057389;28;20443;-71
2021/08/28 10:31:06;;;;;;;11.20;9.18;;;19.40;99.90;;;;;;5057126;28;20462;-72
2021/08/28 10:33:31;;;;;;;10.43;9.30;;;19.50;99.90;;;;;;5075047;28;20074;-70
2021/08/28 10:35:58;;;;;;;13.40;9.63;;;19.70;99.90;;;;;;5075080;28;20040;-70
2021/08/28 10:38:24;;;;;;;10.20;8.55;;;19.70;99.90;;;;;;5057063;28;20534;-69
2021/08/28 10:40:55;;;;;;;10.57;8.70;;;19.80;99.90;;;;;;5055896;28;20031;-71
2021/08/28 10:43:22;;;;;;;12.70;9.38;;;19.90;99.90;;;;;;5074587;28;20064;-69
2021/08/28 10:45:49;;;;;;;11.52;9.02;;;19.90;99.90;;;;;;5074444;28;20484;-71
2021/08/28 10:48:15;;;;;;;8.75;7.55;;;19.80;99.90;;;;;;5074536;28;20021;-71
2021/08/28 10:50:43;;;;;;;10.40;8.48;;;19.70;99.90;;;;;;5074110;28;20473;-71
2021/08/28 10:53:10;;;;;;;13.57;8.93;;;19.60;99.90;;;;;;5073685;28;20730;-71
2021/08/28 10:55:44;;;;;;;9.95;8.55;;;;;;;;;;5055903;28;20033;-69
2021/08/28 10:58:18;;;;;;;10.10;9.00;;;;;;;;;;5056370;28;20085;-70
2021/08/28 11:00:48;;;;;;;10.90;8.38;;;;;;;;;;5074314;28;20027;-73
2021/08/28 11:03:36;;;;;;;12.38;8.65;;;;;;;;;;5056581;28;20032;-69
2021/08/28 11:06:14;;;;;;;9.73;8.73;;;;;;;;;;5056418;28;20512;-72
2021/08/28 11:08:47;;;;;;;10.27;8.45;;;;;;;;;;5056032;28;20376;-72
2021/08/28 11:11:21;;;;;;;8.60;7.70;;;;;;;;;;5073926;28;20461;-73
2021/08/28 11:14:00;;;;;;;9.43;8.45;;;19.50;99.90;;;;;;5054197;28;20028;-72
2021/08/28 11:16:44;;;;;;;14.15;9.68;;;18.70;99.90;;;;;;5055980;28;20036;-70
2021/08/28 11:19:12;;;;;;;9.70;8.70;;;18.60;99.90;;;;;;5074113;28;20028;-70
2021/08/28 11:21:42;;;;;;;10.88;9.15;;;18.50;99.90;;;;;;5056051;28;20449;-65
2021/08/28 11:24:16;;;;;;;10.70;8.45;;;18.50;99.90;;;;;;5073683;28;20085;-66
2021/08/28 11:26:42;;;;;;;11.35;9.88;;;18.50;99.90;;;;;;5055788;28;20036;-67
2021/08/28 11:29:45;;;;;;;12.70;9.05;;;18.40;99.90;;;;;;5073910;28;20097;-68
2021/08/28 11:32:14;;;;;;;12.55;9.13;;;18.30;99.90;;;;;;5058184;28;20131;-69
2021/08/28 11:34:51;;;;;;;10.88;9.73;;;18.30;99.90;;;;;;5072315;28;20077;-67
2021/08/28 11:37:28;;;;;;;12.68;9.35;;;18.20;99.90;;;;;;5093668;28;20032;-70
2021/08/28 11:40:20;;;;;;;9.68;8.63;;;18.20;99.90;;;;;;5093967;28;20032;-69
2021/08/28 11:42:46;;;;;;;10.50;8.00;;;18.20;99.90;;;;;;5064200;28;20400;-71
2021/08/28 11:45:12;;;;;;;11.68;8.60;;;18.30;99.90;;;;;;5091412;28;20032;-72
2021/08/28 11:47:41;;;;;;;13.02;9.18;;;18.50;99.90;;;;;;5073567;28;20514;-68
2021/08/28 11:50:07;;;;;;;12.98;9.85;;;18.50;99.90;;;;;;5073447;28;20056;-67
2021/08/28 11:52:37;;;;;;;16.05;11.43;;;18.50;99.90;;;;;;5073699;28;20115;-67
2021/08/28 11:55:10;;;;;;;12.30;10.68;;;18.40;99.90;;;;;;5055518;28;20028;-69
2021/08/28 11:57:37;;;;;;;14.55;11.05;;;18.40;99.90;;;;;;5055248;28;20032;-68
2021/08/28 12:00:07;;;;;;;14.48;11.02;;;18.20;99.90;;;;;;5055445;28;20028;-68
2021/08/28 12:02:33;;;;;;;15.75;11.88;;;18.10;99.90;;;;;;5073347;28;20049;-69
2021/08/28 12:05:11;;;;;;;12.85;11.13;;;18.10;99.90;;;;;;5073628;28;20033;-70
2021/08/28 12:07:38;;;;;;;14.88;11.68;;;18.20;99.90;;;;;;5073311;28;20025;-70
2021/08/28 12:10:06;;;;;;;13.35;11.05;;;18.30;99.90;;;;;;5072880;28;20052;-71
2021/08/28 12:12:32;;;;;;;14.10;10.88;;;18.40;99.90;;;;;;5073258;28;20032;-71
2021/08/28 12:15:03;;;;;;;11.10;9.85;;;18.50;99.90;;;;;;5072979;28;20024;-66
2021/08/28 12:17:29;;;;;;;12.45;10.18;;;18.50;99.90;;;;;;5073222;28;20028;-67
2021/08/28 12:19:59;;;;;;;14.48;10.88;;;18.40;99.90;;;;;;5073215;28;20059;-70
2021/08/28 12:22:25;;;;;;;12.55;11.15;;;18.40;99.90;;;;;;5055028;28;20540;-66
2021/08/28 12:24:51;;;;;;;18.50;12.27;;;18.30;99.90;;;;;;5055255;28;20119;-66
2021/08/28 12:27:17;;;;;;;16.23;12.77;;;18.40;99.90;;;;;;5073101;28;20128;-69
2021/08/28 12:29:46;;;;;;;12.05;9.88;;;18.40;99.90;;;;;;5073170;28;20524;-68
2021/08/28 12:32:16;;;;;;;12.13;10.48;;;18.40;99.90;;;;;;5073078;28;20072;-66
2021/08/28 12:34:48;;;;;;;11.50;9.60;;;18.50;99.90;;;;;;5073235;28;20131;-66
2021/08/28 12:37:17;;;;;;;12.13;10.82;;;18.50;99.90;;;;;;5072828;28;20032;-69
2021/08/28 12:39:49;;;;;;;10.60;9.20;;;18.50;99.90;;;;;;5072961;28;20055;-67